createdAt,value
2023-05-16T00:01:40.314Z,11.92
2023-05-16T00:06:41.883Z,11.81
2023-05-16T00:11:43.489Z,11.70
2023-05-16T00:16:45.635Z,11.62
2023-05-16T00:21:47.176Z,11.57
2023-05-16T00:26:48.700Z,11.55
2023-05-16T00:31:50.854Z,11.55
2023-05-16T00:36:53.225Z,11.55
2023-05-16T00:41:54.820Z,11.55
2023-05-16T00:46:56.347Z,11.56
2023-05-16T00:51:58.857Z,11.58
2023-05-16T00:57:00.797Z,11.59
2023-05-16T01:02:02.759Z,11.56
2023-05-16T01:07:04.510Z,11.53
2023-05-16T01:12:11.194Z,11.53
2023-05-16T01:17:36.932Z,11.53
2023-05-16T01:22:47.781Z,11.53
2023-05-16T01:27:49.524Z,11.54
2023-05-16T01:32:51.446Z,11.55
2023-05-16T01:38:04.870Z,11.54
2023-05-16T01:43:13.165Z,11.51
2023-05-16T01:48:21.894Z,11.46
2023-05-16T01:53:29.576Z,11.38
2023-05-16T01:58:34.577Z,11.36
2023-05-16T02:03:36.097Z,11.31
2023-05-16T02:08:37.804Z,11.29
2023-05-16T02:13:39.366Z,11.31
2023-05-16T02:18:41.528Z,11.34
2023-05-16T02:23:43.345Z,11.30
2023-05-16T02:28:45.151Z,11.22
2023-05-16T02:33:47.025Z,11.13
2023-05-16T02:38:48.565Z,11.05
2023-05-16T02:43:50.112Z,11.00
2023-05-16T02:48:52.290Z,10.94
2023-05-16T02:53:56.980Z,10.89
2023-05-16T02:58:58.514Z,10.85
2023-05-16T03:04:00.185Z,10.85
2023-05-16T03:09:01.866Z,10.93
2023-05-16T03:14:03.577Z,11.06
2023-05-16T03:19:05.774Z,11.77
2023-05-16T03:24:08.476Z,12.87
2023-05-16T03:29:10.055Z,14.00
2023-05-16T03:34:11.600Z,15.59
2023-05-16T03:39:13.105Z,16.86
2023-05-16T03:44:14.595Z,17.80
2023-05-16T03:49:16.100Z,16.75
2023-05-16T03:54:17.580Z,15.36
2023-05-16T03:59:19.096Z,14.50
2023-05-16T04:04:20.941Z,13.97
2023-05-16T04:09:22.438Z,13.63
2023-05-16T04:14:24.300Z,13.38
2023-05-16T04:19:26.172Z,13.26
2023-05-16T04:24:29.012Z,13.20
2023-05-16T04:29:32.305Z,13.09
2023-05-16T04:34:39.838Z,13.10
2023-05-16T04:39:42.706Z,13.15
2023-05-16T04:44:44.858Z,13.24
2023-05-16T04:49:46.459Z,13.33
2023-05-16T04:54:51.102Z,13.37
2023-05-16T04:59:52.736Z,13.52
2023-05-16T05:04:54.891Z,13.65
2023-05-16T05:09:56.490Z,13.72
2023-05-16T05:14:58.021Z,13.72
2023-05-16T05:20:01.764Z,13.78
2023-05-16T05:25:06.626Z,13.90
2023-05-16T05:30:08.724Z,13.93
2023-05-16T05:35:10.337Z,14.00
2023-05-16T05:40:12.025Z,14.09
2023-05-16T05:45:13.496Z,14.19
2023-05-16T05:50:16.309Z,14.28
2023-05-16T05:55:19.942Z,14.36
2023-05-16T06:00:22.287Z,14.43
2023-05-16T06:05:24.149Z,14.52
2023-05-16T06:10:26.217Z,14.56
2023-05-16T06:15:28.090Z,14.58
2023-05-16T06:20:30.049Z,14.64
2023-05-16T06:25:32.117Z,14.68
2023-05-16T06:30:36.439Z,14.81
2023-05-16T06:35:38.185Z,14.86
2023-05-16T06:40:39.804Z,14.91
2023-05-16T06:45:41.625Z,15.11
2023-05-16T06:50:47.804Z,15.24
2023-05-16T06:55:49.634Z,15.45
2023-05-16T07:00:52.218Z,15.78
2023-05-16T07:05:53.968Z,16.09
2023-05-16T07:10:55.593Z,16.39
2023-05-16T07:15:57.633Z,16.51
2023-05-16T07:20:59.347Z,16.55
2023-05-16T07:26:01.044Z,16.54
2023-05-16T07:31:02.778Z,16.52
2023-05-16T07:36:15.975Z,16.52
2023-05-16T07:41:18.837Z,16.52
2023-05-16T07:46:20.495Z,16.60
2023-05-16T07:51:22.276Z,16.57
2023-05-16T07:56:24.054Z,16.50
2023-05-16T08:01:26.483Z,16.47
2023-05-16T08:06:28.076Z,16.39
2023-05-16T08:11:29.955Z,16.59
2023-05-16T08:16:31.675Z,16.56
2023-05-16T08:21:35.230Z,16.45
2023-05-16T08:26:37.516Z,16.74
2023-05-16T08:31:39.844Z,17.08
2023-05-16T08:36:41.721Z,16.91
2023-05-16T08:41:43.782Z,16.84
2023-05-16T08:46:50.727Z,16.83
2023-05-16T08:51:57.827Z,16.68
2023-05-16T08:57:01.829Z,16.79
2023-05-16T09:02:05.498Z,17.06
2023-05-16T09:07:07.038Z,16.65
2023-05-16T09:12:09.998Z,16.65
2023-05-16T09:17:13.053Z,16.86
2023-05-16T09:22:21.058Z,16.95
2023-05-16T09:27:22.693Z,16.91
2023-05-16T09:32:25.220Z,16.90
2023-05-16T09:37:26.809Z,16.98
2023-05-16T09:42:28.327Z,17.48
2023-05-16T09:47:29.938Z,17.77
2023-05-16T09:52:31.548Z,17.85
2023-05-16T09:57:33.091Z,17.81
2023-05-16T10:02:38.359Z,17.70
2023-05-16T10:07:40.812Z,17.93
2023-05-16T10:12:43.029Z,18.14
2023-05-16T10:17:49.390Z,18.19
2023-05-16T10:22:55.653Z,18.39
2023-05-16T10:27:58.555Z,18.64
2023-05-16T10:33:01.831Z,19.03
2023-05-16T10:38:07.447Z,19.17
2023-05-16T10:43:10.021Z,19.29
2023-05-16T10:48:12.889Z,19.02
2023-05-16T10:53:18.474Z,19.06
2023-05-16T10:58:37.940Z,19.38
2023-05-16T11:04:02.545Z,19.58
2023-05-16T11:09:10.558Z,19.45
2023-05-16T11:14:34.050Z,19.22
2023-05-16T11:19:42.029Z,19.25
2023-05-16T11:25:02.184Z,19.30
2023-05-16T11:30:06.559Z,19.32
2023-05-16T11:35:14.486Z,19.44
2023-05-16T11:40:17.596Z,19.46
2023-05-16T11:45:21.871Z,19.57
2023-05-16T11:50:24.286Z,19.77
2023-05-16T11:55:41.006Z,19.44
2023-05-16T12:00:51.448Z,19.74
2023-05-16T12:05:54.694Z,20.00
2023-05-16T12:10:56.469Z,19.91
2023-05-16T12:15:58.879Z,20.11
2023-05-16T12:21:00.621Z,20.39
2023-05-16T12:26:07.086Z,20.21
2023-05-16T12:31:31.209Z,20.48
2023-05-16T12:36:35.207Z,20.48
2023-05-16T12:41:42.344Z,20.70
2023-05-16T12:46:46.175Z,20.73
2023-05-16T12:51:52.575Z,20.76
2023-05-16T12:56:54.206Z,20.77
2023-05-16T13:01:55.814Z,20.95
2023-05-16T13:06:59.572Z,21.01
2023-05-16T13:12:04.389Z,20.98
2023-05-16T13:17:05.923Z,20.70
2023-05-16T13:22:07.628Z,20.48
2023-05-16T13:27:09.200Z,20.53
2023-05-16T13:32:10.975Z,20.57
2023-05-16T13:37:12.762Z,20.49
2023-05-16T13:42:14.343Z,20.44
2023-05-16T13:47:16.453Z,20.29
2023-05-16T13:52:18.051Z,20.42
2023-05-16T13:57:19.633Z,20.49
2023-05-16T14:02:21.397Z,20.60
2023-05-16T14:07:23.046Z,20.39
2023-05-16T14:12:24.661Z,20.15
2023-05-16T14:17:27.012Z,19.97
2023-05-16T14:22:28.663Z,20.01
2023-05-16T14:27:30.824Z,20.11
2023-05-16T14:32:32.652Z,20.04
2023-05-16T14:37:34.418Z,20.03
2023-05-16T14:42:36.585Z,20.13
2023-05-16T14:47:38.518Z,20.21
2023-05-16T14:52:40.729Z,20.22
2023-05-16T14:57:44.051Z,20.24
2023-05-16T15:02:47.033Z,20.36
2023-05-16T15:07:50.093Z,20.48
2023-05-16T15:12:51.744Z,20.32
2023-05-16T15:17:54.941Z,20.21
2023-05-16T15:22:56.583Z,20.01
2023-05-16T15:27:58.208Z,19.79
2023-05-16T15:32:59.765Z,19.59
2023-05-16T15:38:01.494Z,19.35
2023-05-16T15:43:03.956Z,19.22
2023-05-16T15:48:05.613Z,19.14
2023-05-16T15:53:07.411Z,19.15
2023-05-16T15:58:08.986Z,19.05
2023-05-16T16:03:10.765Z,18.81
2023-05-16T16:08:12.589Z,18.72
2023-05-16T16:13:14.183Z,18.64
2023-05-16T16:18:15.809Z,18.61
2023-05-16T16:23:17.329Z,18.42
2023-05-16T16:28:20.533Z,18.26
2023-05-16T16:33:23.521Z,18.14
2023-05-16T16:38:25.076Z,18.06
2023-05-16T16:43:26.814Z,18.02
2023-05-16T16:48:28.420Z,17.97
2023-05-16T16:53:32.587Z,17.81
2023-05-16T16:58:34.223Z,17.72
2023-05-16T17:03:36.181Z,17.66
2023-05-16T17:08:37.919Z,17.60
2023-05-16T17:13:42.005Z,17.53
2023-05-16T17:18:43.830Z,17.43
2023-05-16T17:23:45.489Z,17.34
2023-05-16T17:28:49.308Z,17.28
2023-05-16T17:33:51.287Z,17.19
2023-05-16T17:38:52.847Z,17.07
2023-05-16T17:43:54.501Z,16.94
2023-05-16T17:48:56.062Z,16.82
2023-05-16T17:53:57.713Z,16.73
2023-05-16T17:58:59.349Z,16.62
2023-05-16T18:04:01.329Z,16.51
2023-05-16T18:09:06.571Z,16.42
2023-05-16T18:14:14.455Z,16.35
2023-05-16T18:19:16.418Z,16.26
2023-05-16T18:24:18.120Z,16.20
2023-05-16T18:29:19.859Z,16.14
2023-05-16T18:34:21.498Z,16.08
2023-05-16T18:39:23.066Z,16.04
2023-05-16T18:44:24.618Z,15.99
2023-05-16T18:49:26.754Z,15.93
2023-05-16T18:54:28.329Z,15.88
2023-05-16T18:59:30.368Z,15.82
2023-05-16T19:04:32.105Z,15.79
2023-05-16T19:09:34.006Z,15.75
2023-05-16T19:14:38.502Z,15.70
2023-05-16T19:19:40.141Z,15.64
2023-05-16T19:24:41.811Z,15.59
2023-05-16T19:29:43.428Z,15.54
2023-05-16T19:34:45.041Z,15.49
2023-05-16T19:39:46.686Z,15.44
2023-05-16T19:44:48.213Z,15.41
2023-05-16T19:49:49.889Z,15.36
2023-05-16T19:54:51.695Z,15.31
2023-05-16T19:59:53.267Z,15.27
2023-05-16T20:04:54.836Z,15.23
2023-05-16T20:09:56.586Z,15.21
2023-05-16T20:14:58.353Z,15.16
2023-05-16T20:20:00.348Z,15.12
2023-05-16T20:25:02.029Z,15.09
2023-05-16T20:30:05.057Z,15.05
2023-05-16T20:35:10.193Z,15.00
2023-05-16T20:40:12.147Z,14.96
2023-05-16T20:45:13.735Z,14.92
2023-05-16T20:50:15.443Z,14.88
2023-05-16T20:55:16.991Z,14.86
2023-05-16T21:00:25.484Z,14.84
2023-05-16T21:05:27.152Z,14.82
2023-05-16T21:10:28.856Z,14.81
2023-05-16T21:15:30.826Z,14.78
2023-05-16T21:20:32.401Z,14.75
2023-05-16T21:25:33.956Z,14.77
2023-05-16T21:30:37.012Z,14.78
2023-05-16T21:35:38.547Z,14.76
2023-05-16T21:40:40.293Z,14.74
2023-05-16T21:45:41.837Z,14.72
2023-05-16T21:50:44.039Z,14.65
2023-05-16T21:55:45.570Z,14.59
2023-05-16T22:00:52.579Z,14.52
2023-05-16T22:05:54.215Z,14.49
2023-05-16T22:10:55.984Z,14.46
2023-05-16T22:16:04.423Z,14.43
2023-05-16T22:21:07.037Z,14.40
2023-05-16T22:26:08.731Z,14.29
2023-05-16T22:31:10.356Z,14.14
2023-05-16T22:36:11.886Z,14.02
2023-05-16T22:41:13.446Z,13.89
2023-05-16T22:46:15.546Z,13.80
2023-05-16T22:51:17.514Z,13.68
2023-05-16T22:56:19.045Z,13.56
2023-05-16T23:01:20.607Z,13.43
2023-05-16T23:06:22.177Z,13.31
2023-05-16T23:11:23.751Z,13.27
2023-05-16T23:16:25.451Z,13.22
2023-05-16T23:21:26.981Z,13.17
2023-05-16T23:26:28.549Z,13.12
2023-05-16T23:31:30.147Z,13.09
2023-05-16T23:36:31.922Z,13.08
2023-05-16T23:41:33.676Z,13.07
2023-05-16T23:46:35.205Z,13.04
2023-05-16T23:51:52.688Z,12.98
2023-05-16T23:56:58.260Z,12.93
